Time;durP1;ratioP1;P1;durP2;ratioP2;P2;SDS_P1;SDS_P2;PMS_P1;PMS_P2;Temp;Humidity;BMP_temperature;BMP_pressure;BME280_temperature;BME280_humidity;BME280_pressure;Samples;Min_cycle;Max_cycle;Signal;HPM_P1;HPM_P2
2023/12/14 00:01:21;;;;;;;1.20;1.20;;;11.90;82.30;10.70;95211.00;;;;5050875;28;20239;-89
2023/12/14 00:03:48;;;;;;;1.80;1.33;;;11.90;82.20;10.70;95209.00;;;;5051778;28;20209;-89
2023/12/14 00:06:15;;;;;;;1.20;1.20;;;11.90;82.30;10.70;95214.00;;;;5050591;28;20228;-89
2023/12/14 00:08:43;;;;;;;1.50;1.40;;;11.90;82.40;10.70;95212.00;;;;5052248;28;20607;-89
2023/12/14 00:11:12;;;;;;;1.33;1.33;;;11.90;82.30;10.70;95219.00;;;;5052366;28;20588;-89
2023/12/14 00:13:40;;;;;;;1.53;1.43;;;11.90;82.10;10.70;95230.00;;;;5052172;28;20192;-89
2023/12/14 00:16:09;;;;;;;1.80;1.70;;;11.90;82.20;10.70;95224.00;;;;5051649;28;20236;-90
2023/12/14 00:18:38;;;;;;;2.43;2.23;;;11.90;82.10;10.70;95226.00;;;;5052155;28;20657;-88
2023/12/14 00:21:06;;;;;;;1.87;1.77;;;11.90;82.20;10.70;95236.00;;;;5052122;28;20239;-89
2023/12/14 00:23:35;;;;;;;1.37;1.27;;;11.90;82.30;10.70;95230.00;;;;5051898;28;20203;-89
2023/12/14 00:26:03;;;;;;;2.00;1.90;;;11.90;82.20;10.70;95244.00;;;;5052109;28;20687;-89
2023/12/14 00:28:30;;;;;;;2.07;1.97;;;11.90;82.30;10.70;95239.00;;;;5051965;28;20204;-89
2023/12/14 00:30:57;;;;;;;1.80;1.70;;;11.90;82.30;10.70;95247.00;;;;5051759;28;20232;-89
2023/12/14 00:33:25;;;;;;;2.20;2.00;;;11.90;82.30;10.70;95248.00;;;;5052096;28;20580;-89
2023/12/14 00:35:54;;;;;;;1.90;1.80;;;11.90;82.30;10.70;95236.00;;;;5052401;28;20224;-89
2023/12/14 00:38:21;;;;;;;1.50;1.40;;;11.90;82.20;10.70;95244.00;;;;5051678;28;20197;-89
2023/12/14 00:40:48;;;;;;;1.37;1.37;;;11.90;82.20;10.70;95249.00;;;;5051513;28;20687;-89
2023/12/14 00:43:16;;;;;;;1.23;1.23;;;11.90;82.10;10.70;95243.00;;;;5050912;28;20204;-89
2023/12/14 00:45:43;;;;;;;1.27;1.27;;;11.90;82.20;10.70;95253.00;;;;5049533;28;20224;-89
2023/12/14 00:48:11;;;;;;;1.40;1.30;;;11.90;82.20;10.70;95256.00;;;;5050381;28;20219;-89
2023/12/14 00:50:38;;;;;;;1.20;1.20;;;11.90;82.30;10.70;95254.00;;;;5050128;28;20291;-89
2023/12/14 00:53:07;;;;;;;1.50;1.40;;;11.90;82.30;10.70;95263.00;;;;5051141;28;20196;-89
2023/12/14 00:55:34;;;;;;;1.40;1.30;;;11.90;82.40;10.70;95275.00;;;;5050475;28;20219;-89
2023/12/14 00:58:01;;;;;;;1.20;1.13;;;11.90;83.20;10.70;95280.00;;;;5051863;28;20197;-89
2023/12/14 01:00:31;;;;;;;1.17;1.17;;;11.90;82.60;10.70;95291.00;;;;5051793;28;20193;-89
2023/12/14 01:02:58;;;;;;;1.50;1.00;;;11.90;82.60;10.70;95280.00;;;;5051964;28;20241;-89
2023/12/14 01:05:25;;;;;;;0.90;0.90;;;11.90;82.60;10.70;95298.00;;;;5051893;28;20225;-89
2023/12/14 01:07:53;;;;;;;0.90;0.90;;;11.90;82.60;10.80;95304.00;;;;5051398;28;20204;-89
2023/12/14 01:10:22;;;;;;;1.00;1.00;;;11.90;82.50;10.80;95302.00;;;;5051803;28;20204;-89
2023/12/14 01:12:50;;;;;;;1.10;1.10;;;11.90;82.40;10.70;95309.00;;;;5051684;28;20691;-89
2023/12/14 01:15:17;;;;;;;0.90;0.90;;;11.90;82.20;10.80;95306.00;;;;5051577;28;20228;-89
2023/12/14 01:17:44;;;;;;;0.90;0.80;;;11.90;82.00;10.70;95303.00;;;;5051627;28;20193;-89
2023/12/14 01:20:12;;;;;;;0.97;0.93;;;11.90;82.10;10.70;95302.00;;;;5051520;28;20254;-89
2023/12/14 01:22:40;;;;;;;1.07;0.97;;;11.90;82.10;10.70;95310.00;;;;5051693;28;20745;-89
2023/12/14 01:25:08;;;;;;;0.87;0.87;;;11.90;82.00;10.70;95310.00;;;;5051527;28;20216;-89
2023/12/14 01:27:37;;;;;;;0.97;0.97;;;11.90;82.00;10.70;95320.00;;;;5051561;28;20243;-89
2023/12/14 01:30:05;;;;;;;1.47;1.37;;;11.90;82.10;10.70;95322.00;;;;5055064;28;20205;-89
2023/12/14 01:32:33;;;;;;;2.10;1.20;;;11.90;82.10;10.70;95320.00;;;;5054741;28;20227;-89
2023/12/14 01:35:00;;;;;;;1.10;1.10;;;11.90;82.10;10.70;95319.00;;;;5054395;28;20274;-89
2023/12/14 01:37:27;;;;;;;1.10;1.10;;;11.90;81.90;10.70;95330.00;;;;5054707;28;20208;-89
2023/12/14 01:39:55;;;;;;;1.23;1.13;;;11.90;81.70;10.70;95329.00;;;;5053725;28;20197;-89
2023/12/14 01:42:28;;;;;;;1.23;1.13;;;11.90;81.80;10.70;95338.00;;;;5053853;28;20192;-89
2023/12/14 01:45:15;;;;;;;1.27;1.20;;;11.90;81.70;10.70;95341.00;;;;5054395;28;20278;-89
2023/12/14 01:47:43;;;;;;;1.20;1.20;;;11.90;81.70;10.70;95339.00;;;;5053575;28;20276;-89
2023/12/14 01:50:10;;;;;;;1.30;1.20;;;11.90;82.00;10.70;95349.00;;;;5053234;28;20200;-89
2023/12/14 01:52:38;;;;;;;1.47;0.93;;;11.90;82.10;10.70;95345.00;;;;5053456;28;20209;-89
2023/12/14 01:55:07;;;;;;;1.17;1.10;;;11.80;81.90;10.70;95356.00;;;;5054684;28;20212;-89
2023/12/14 01:57:34;;;;;;;1.10;1.10;;;11.80;81.70;10.60;95357.00;;;;5054667;28;20204;-89
2023/12/14 02:00:01;;;;;;;1.37;1.30;;;11.80;81.70;10.60;95356.00;;;;5054381;28;20573;-89
2023/12/14 02:02:30;;;;;;;1.37;1.30;;;11.80;81.70;10.60;95362.00;;;;5054379;28;20204;-89
2023/12/14 02:04:57;;;;;;;1.20;1.20;;;11.80;81.80;10.60;95369.00;;;;5054257;28;20225;-89
2023/12/14 02:07:25;;;;;;;1.40;1.30;;;11.80;81.90;10.60;95378.00;;;;5054114;28;20196;-89
2023/12/14 02:09:52;;;;;;;1.50;1.40;;;11.80;82.00;10.60;95375.00;;;;5053287;28;20197;-89
2023/12/14 02:12:19;;;;;;;1.60;1.50;;;11.80;82.20;10.60;95373.00;;;;5052929;28;20252;-89
2023/12/14 02:14:49;;;;;;;1.67;1.57;;;11.80;82.20;10.60;95382.00;;;;5053167;28;20220;-89
2023/12/14 02:17:16;;;;;;;1.60;1.50;;;11.80;82.20;10.60;95381.00;;;;5054019;28;20212;-89
2023/12/14 02:19:45;;;;;;;1.60;1.30;;;11.80;82.30;10.60;95379.00;;;;5054122;28;20267;-89
2023/12/14 02:22:12;;;;;;;1.30;1.30;;;11.80;82.30;10.70;95382.00;;;;5054326;28;20557;-89
2023/12/14 02:24:41;;;;;;;1.77;1.67;;;11.80;82.20;10.60;95385.00;;;;5054187;28;20358;-88
2023/12/14 02:27:08;;;;;;;1.80;1.70;;;11.80;82.20;10.60;95384.00;;;;5053938;28;20207;-88
2023/12/14 02:29:35;;;;;;;2.07;1.97;;;11.80;82.20;10.60;95388.00;;;;5053911;28;20201;-88
2023/12/14 02:32:03;;;;;;;2.27;2.07;;;11.80;82.20;10.60;95392.00;;;;5053377;28;20231;-89
2023/12/14 02:34:30;;;;;;;2.47;2.27;;;11.80;82.10;10.60;95393.00;;;;5052955;28;20229;-89
2023/12/14 02:36:57;;;;;;;2.80;2.60;;;11.80;82.10;10.60;95387.00;;;;5052476;28;20271;-89
2023/12/14 02:39:24;;;;;;;2.90;2.70;;;11.80;82.00;10.60;95384.00;;;;5052292;28;20200;-88
2023/12/14 02:41:53;;;;;;;3.10;2.90;;;11.80;81.80;10.60;95400.00;;;;5052612;28;20215;-89
2023/12/14 02:44:20;;;;;;;3.00;2.80;;;11.80;81.70;10.60;95408.00;;;;5052328;28;20225;-88
2023/12/14 02:46:48;;;;;;;2.73;2.53;;;11.70;81.60;10.60;95402.00;;;;5052725;28;20200;-89
2023/12/14 02:49:15;;;;;;;3.03;2.83;;;11.70;81.40;10.50;95395.00;;;;5052921;28;20192;-88
2023/12/14 02:51:42;;;;;;;3.00;2.80;;;11.70;81.30;10.50;95408.00;;;;5053443;28;20709;-89
2023/12/14 02:54:10;;;;;;;3.17;2.97;;;11.70;81.20;10.50;95417.00;;;;5053491;28;20679;-89
2023/12/14 02:56:37;;;;;;;3.30;3.10;;;11.60;81.10;10.40;95419.00;;;;5053112;28;20212;-88
2023/12/14 02:59:06;;;;;;;3.43;3.17;;;11.60;81.20;10.40;95409.00;;;;5053569;28;20197;-89
2023/12/14 03:01:33;;;;;;;2.90;2.70;;;11.60;81.10;10.40;95420.00;;;;5053772;28;20197;-89
2023/12/14 03:04:01;;;;;;;2.97;2.77;;;11.60;81.30;10.30;95421.00;;;;5053626;28;20204;-88
2023/12/14 03:06:28;;;;;;;2.80;2.60;;;11.60;81.50;10.30;95430.00;;;;5053304;28;20204;-89
2023/12/14 03:08:55;;;;;;;3.43;3.23;;;11.50;81.70;10.30;95434.00;;;;5053274;28;20215;-88
2023/12/14 03:11:24;;;;;;;3.10;2.90;;;11.50;81.80;10.30;95432.00;;;;5053205;28;20197;-88
2023/12/14 03:13:51;;;;;;;3.40;3.20;;;11.50;81.90;10.30;95436.00;;;;5053284;28;20197;-89
2023/12/14 03:16:21;;;;;;;3.70;3.40;;;11.50;82.00;10.30;95442.00;;;;5053252;28;20233;-88
2023/12/14 03:18:52;;;;;;;3.13;2.93;;;11.50;81.90;10.30;95442.00;;;;5053315;28;20557;-87
2023/12/14 03:21:19;;;;;;;3.30;3.10;;;11.50;82.00;10.30;95449.00;;;;5053021;28;20193;-89
2023/12/14 03:23:47;;;;;;;3.23;3.03;;;11.50;82.10;10.30;95450.00;;;;5052997;28;20196;-88
2023/12/14 03:26:14;;;;;;;3.23;3.03;;;11.50;82.00;10.30;95458.00;;;;5052853;28;20220;-89
2023/12/14 03:28:42;;;;;;;3.07;2.87;;;11.50;82.10;10.30;95460.00;;;;5052547;28;20736;-89
2023/12/14 03:31:13;;;;;;;3.10;2.90;;;11.50;82.20;10.30;95450.00;;;;5051127;28;20215;-88
2023/12/14 03:33:42;;;;;;;3.10;2.90;;;11.50;82.00;10.30;95465.00;;;;5051258;28;20212;-88
2023/12/14 03:36:10;;;;;;;2.80;2.60;;;11.50;82.00;10.30;95462.00;;;;5051047;28;20227;-89
2023/12/14 03:38:37;;;;;;;3.30;3.10;;;11.50;82.00;10.30;95464.00;;;;5051445;28;20213;-89
2023/12/14 03:41:05;;;;;;;3.03;2.70;;;11.50;82.10;10.30;95477.00;;;;5051472;28;20201;-88
2023/12/14 03:43:32;;;;;;;3.00;2.80;;;11.50;82.10;10.30;95480.00;;;;5051516;28;20215;-88
2023/12/14 03:45:59;;;;;;;2.90;2.70;;;11.50;82.10;10.30;95489.00;;;;5052532;28;20216;-88
2023/12/14 03:48:27;;;;;;;3.33;3.13;;;11.50;82.20;10.30;95488.00;;;;5052764;28;20212;-88
2023/12/14 03:50:55;;;;;;;3.37;3.10;;;11.50;82.20;10.30;95496.00;;;;5051621;28;20216;-89
2023/12/14 03:53:23;;;;;;;3.57;3.37;;;11.50;82.30;10.30;95494.00;;;;5052407;28;20235;-89
2023/12/14 03:55:50;;;;;;;3.20;3.00;;;11.60;82.40;10.40;95496.00;;;;5052436;28;20220;-88
2023/12/14 03:58:20;;;;;;;4.07;3.43;;;11.60;82.50;10.40;95504.00;;;;5052589;28;20227;-88
2023/12/14 04:00:48;;;;;;;3.50;3.10;;;11.60;82.40;10.40;95507.00;;;;5052313;28;20204;-89
2023/12/14 04:03:15;;;;;;;3.47;3.17;;;11.60;82.40;10.40;95503.00;;;;5052339;28;20207;-88
2023/12/14 04:05:44;;;;;;;4.13;3.73;;;11.60;82.40;10.40;95515.00;;;;5052053;28;20224;-88
2023/12/14 04:08:12;;;;;;;4.13;3.83;;;11.60;82.40;10.40;95520.00;;;;5051992;28;20196;-89
2023/12/14 04:10:40;;;;;;;4.07;3.77;;;11.60;82.20;10.40;95518.00;;;;5052229;28;20274;-88
2023/12/14 04:13:07;;;;;;;4.07;3.77;;;11.60;82.20;10.40;95526.00;;;;5051586;28;20224;-89
2023/12/14 04:15:34;;;;;;;3.93;3.63;;;11.60;82.20;10.40;95535.00;;;;5051042;28;20231;-88
2023/12/14 04:18:02;;;;;;;3.70;3.40;;;11.60;82.10;10.40;95541.00;;;;5051056;28;20204;-89
2023/12/14 04:20:29;;;;;;;3.80;3.50;;;11.60;82.10;10.40;95552.00;;;;5051828;28;20205;-88
2023/12/14 04:22:56;;;;;;;4.60;4.07;;;11.60;82.10;10.40;95541.00;;;;5052590;28;20687;-88
2023/12/14 04:25:25;;;;;;;3.93;3.70;;;11.60;82.10;10.30;95557.00;;;;5051421;28;20270;-89
2023/12/14 04:27:52;;;;;;;4.47;4.07;;;11.60;82.00;10.30;95550.00;;;;5051597;28;20211;-88
2023/12/14 04:30:20;;;;;;;4.10;3.80;;;11.50;82.00;10.30;95547.00;;;;5051590;28;20192;-88
2023/12/14 04:32:47;;;;;;;4.97;4.57;;;11.50;82.00;10.30;95553.00;;;;5051719;28;20232;-88
2023/12/14 04:35:15;;;;;;;4.93;4.43;;;11.60;82.00;10.30;95559.00;;;;5051942;28;20696;-90
2023/12/14 04:37:42;;;;;;;5.10;4.70;;;11.50;81.90;10.30;95564.00;;;;5051616;28;20563;-88
2023/12/14 04:40:10;;;;;;;5.20;4.73;;;11.50;81.90;10.30;95574.00;;;;5052084;28;20577;-88
2023/12/14 04:42:39;;;;;;;5.23;4.83;;;11.50;81.70;10.30;95577.00;;;;5051976;28;20569;-88
2023/12/14 04:45:08;;;;;;;5.40;5.00;;;11.50;81.70;10.20;95577.00;;;;5051863;28;20220;-89
2023/12/14 04:47:36;;;;;;;5.37;4.97;;;11.50;81.70;10.20;95573.00;;;;5052261;28;20209;-88
2023/12/14 04:50:04;;;;;;;5.07;4.67;;;11.50;81.80;10.20;95581.00;;;;5051623;28;20193;-88
2023/12/14 04:52:32;;;;;;;5.10;4.70;;;11.50;81.90;10.20;95584.00;;;;5052011;28;20232;-88
2023/12/14 04:55:00;;;;;;;6.13;5.57;;;11.40;82.00;10.10;95596.00;;;;5051922;28;20259;-88
2023/12/14 04:57:27;;;;;;;5.90;5.40;;;11.40;82.10;10.10;95598.00;;;;5051922;28;20675;-88
2023/12/14 04:59:56;;;;;;;5.37;4.97;;;11.40;82.10;10.10;95595.00;;;;5051830;28;20208;-88
2023/12/14 05:02:24;;;;;;;5.33;4.90;;;11.40;82.10;10.20;95605.00;;;;5052847;28;20200;-89
2023/12/14 05:04:51;;;;;;;6.23;5.73;;;11.40;82.30;10.20;95607.00;;;;5055910;28;20234;-89
2023/12/14 05:07:18;;;;;;;6.70;6.10;;;11.40;82.40;10.20;95609.00;;;;5055252;28;20193;-88
2023/12/14 05:09:45;;;;;;;5.87;5.37;;;11.40;82.30;10.20;95617.00;;;;5055381;28;20196;-88
2023/12/14 05:12:13;;;;;;;5.53;5.03;;;11.40;83.00;10.20;95613.00;;;;5055457;28;20212;-89
2023/12/14 05:14:40;;;;;;;5.67;5.17;;;11.40;82.30;10.20;95630.00;;;;5055653;28;20734;-88
2023/12/14 05:17:08;;;;;;;5.63;5.23;;;11.40;82.30;10.20;95629.00;;;;5055455;28;20270;-89
2023/12/14 05:19:35;;;;;;;5.90;5.40;;;11.40;82.20;10.20;95627.00;;;;5054765;28;20208;-89
2023/12/14 05:22:03;;;;;;;6.23;5.63;;;11.40;82.20;10.10;95621.00;;;;5053868;28;20719;-89
2023/12/14 05:24:30;;;;;;;5.67;5.27;;;11.40;82.10;10.10;95647.00;;;;5053419;28;20299;-88
2023/12/14 05:26:57;;;;;;;5.73;5.23;;;11.40;82.10;10.10;95654.00;;;;5053643;28;20228;-89
2023/12/14 05:29:28;;;;;;;5.80;5.30;;;11.40;82.00;10.10;95648.00;;;;5054126;28;20719;-88
2023/12/14 05:31:57;;;;;;;5.90;5.40;;;11.30;81.80;10.10;95653.00;;;;5057550;28;20201;-89
2023/12/14 05:34:26;;;;;;;6.03;5.53;;;11.30;81.90;10.10;95666.00;;;;5059290;28;20220;-89
2023/12/14 05:36:54;;;;;;;6.57;6.00;;;11.30;81.80;10.10;95664.00;;;;5058449;28;20205;-89
2023/12/14 05:39:22;;;;;;;6.47;5.77;;;11.30;82.20;10.10;95676.00;;;;5055511;28;20197;-88
2023/12/14 05:41:50;;;;;;;5.87;5.27;;;11.30;81.80;10.10;95681.00;;;;5055408;28;20254;-88
2023/12/14 05:44:18;;;;;;;5.70;5.20;;;11.30;81.80;10.00;95687.00;;;;5056499;28;20217;-88
2023/12/14 05:46:46;;;;;;;5.60;5.20;;;11.30;81.80;10.00;95674.00;;;;5059067;28;20291;-88
2023/12/14 05:49:15;;;;;;;5.70;5.20;;;11.30;81.80;10.00;95686.00;;;;5059168;28;20319;-88
2023/12/14 05:51:45;;;;;;;5.90;5.30;;;11.20;81.80;10.00;95684.00;;;;5060153;28;20208;-90
2023/12/14 05:54:12;;;;;;;5.97;5.47;;;11.20;81.80;10.00;95695.00;;;;5057638;28;20225;-89
2023/12/14 05:56:40;;;;;;;5.20;4.80;;;11.20;82.00;10.00;95699.00;;;;5054294;28;20211;-89
2023/12/14 05:59:08;;;;;;;6.10;5.60;;;11.20;82.10;10.00;95703.00;;;;5054803;28;20200;-89
2023/12/14 06:01:36;;;;;;;6.23;5.63;;;11.20;82.20;10.00;95702.00;;;;5054506;28;20246;-89
2023/12/14 06:04:04;;;;;;;6.77;6.13;;;11.20;82.20;10.00;95706.00;;;;5054233;28;20231;-89
2023/12/14 06:06:31;;;;;;;6.20;5.70;;;11.20;82.30;10.00;95716.00;;;;5054400;28;20605;-89
2023/12/14 06:09:00;;;;;;;6.10;5.60;;;11.20;82.30;10.00;95722.00;;;;5054411;28;20216;-88
2023/12/14 06:11:27;;;;;;;6.20;5.70;;;11.20;82.90;10.00;95729.00;;;;5054180;28;20194;-89
2023/12/14 06:13:54;;;;;;;5.70;5.20;;;11.20;82.20;10.00;95729.00;;;;5053564;28;20334;-89
2023/12/14 06:16:21;;;;;;;5.80;5.30;;;11.20;82.20;10.00;95724.00;;;;5053254;28;20856;-89
2023/12/14 06:19:00;;;;;;;5.70;5.20;;;11.20;82.10;10.00;95735.00;;;;5053496;28;20239;-89
2023/12/14 06:21:28;;;;;;;5.50;4.87;;;11.20;81.60;10.00;95740.00;;;;5052704;28;20258;-88
2023/12/14 06:23:56;;;;;;;6.23;5.63;;;11.20;81.80;10.00;95745.00;;;;5052586;28;20197;-90
2023/12/14 06:26:25;;;;;;;5.67;5.17;;;11.20;81.60;10.00;95751.00;;;;5053214;28;20542;-88
2023/12/14 06:28:52;;;;;;;6.20;5.60;;;11.20;81.50;10.00;95752.00;;;;5052611;28;20206;-88
2023/12/14 06:31:21;;;;;;;5.77;5.27;;;11.20;82.40;10.00;95748.00;;;;5053263;28;20204;-88
2023/12/14 06:33:49;;;;;;;5.90;5.40;;;11.20;81.80;10.00;95763.00;;;;5053511;28;20221;-88
2023/12/14 06:36:18;;;;;;;6.00;5.50;;;11.20;81.90;9.90;95765.00;;;;5053358;28;20259;-89
2023/12/14 06:38:46;;;;;;;6.50;5.90;;;11.20;81.70;10.00;95770.00;;;;5051395;28;20198;-85
2023/12/14 06:41:20;;;;;;;6.20;5.70;;;11.20;81.80;9.90;95779.00;;;;5054947;28;20247;-84
2023/12/14 06:43:48;;;;;;;5.67;5.20;;;11.20;81.80;9.90;95775.00;;;;5055613;28;20266;-85
2023/12/14 06:46:16;;;;;;;6.07;5.57;;;11.20;81.90;9.90;95779.00;;;;5045389;28;20240;-84
2023/12/14 06:48:43;;;;;;;6.07;5.57;;;11.10;81.70;10.00;95783.00;;;;5056874;28;20245;-84
2023/12/14 06:51:10;;;;;;;5.97;5.40;;;11.20;81.70;10.00;95788.00;;;;5056051;28;20359;-85
2023/12/14 06:53:41;;;;;;;6.20;5.70;;;11.20;81.80;10.00;95796.00;;;;5048923;28;20271;-84
2023/12/14 06:56:10;;;;;;;6.17;5.63;;;11.20;81.80;10.00;95800.00;;;;5053826;28;20644;-84
2023/12/14 06:58:37;;;;;;;5.70;5.20;;;11.30;81.80;10.00;95800.00;;;;5043246;28;20208;-84
2023/12/14 07:01:06;;;;;;;5.60;5.10;;;11.30;81.90;10.00;95805.00;;;;5050185;28;20223;-84
2023/12/14 07:03:34;;;;;;;5.53;5.03;;;11.30;81.80;10.00;95804.00;;;;5047129;28;20202;-85
2023/12/14 07:06:01;;;;;;;5.43;4.93;;;11.30;81.90;10.00;95817.00;;;;5041248;28;20303;-83
2023/12/14 07:08:28;;;;;;;5.23;4.83;;;11.30;81.80;10.00;95820.00;;;;5054297;28;20264;-84
2023/12/14 07:10:55;;;;;;;5.90;5.40;;;11.30;81.70;10.10;95826.00;;;;5051539;28;20223;-84
2023/12/14 07:13:22;;;;;;;5.33;4.93;;;11.30;81.70;10.10;95832.00;;;;5050003;28;20273;-84
2023/12/14 07:15:49;;;;;;;5.27;4.80;;;11.30;81.70;10.10;95841.00;;;;5048999;28;20654;-84
2023/12/14 07:18:18;;;;;;;5.93;5.43;;;11.40;81.80;10.10;95842.00;;;;5052241;28;20284;-85
2023/12/14 07:20:45;;;;;;;5.90;5.40;;;11.40;81.70;10.10;95846.00;;;;5052449;28;20229;-84
2023/12/14 07:23:12;;;;;;;5.90;5.40;;;11.40;81.80;10.10;95858.00;;;;5040288;28;20297;-84
2023/12/14 07:25:39;;;;;;;5.80;5.20;;;11.40;81.70;10.10;95841.00;;;;5056889;28;20814;-84
2023/12/14 07:28:10;;;;;;;5.77;5.20;;;11.40;81.80;10.10;95857.00;;;;5050489;28;20197;-84
2023/12/14 07:30:37;;;;;;;4.90;4.50;;;11.40;81.70;10.10;95854.00;;;;5042618;28;20284;-84
2023/12/14 07:33:05;;;;;;;4.80;4.40;;;11.40;81.70;10.10;95863.00;;;;5045706;28;20251;-85
2023/12/14 07:35:35;;;;;;;4.93;4.60;;;11.40;81.70;10.10;95867.00;;;;5063726;28;20286;-85
2023/12/14 07:38:02;;;;;;;4.87;4.43;;;11.40;81.50;10.10;95870.00;;;;5044794;28;20206;-84
2023/12/14 07:40:29;;;;;;;4.50;4.20;;;11.40;81.60;10.20;95874.00;;;;5050402;28;20209;-84
2023/12/14 07:42:56;;;;;;;4.93;4.53;;;11.50;81.50;10.20;95882.00;;;;5059206;28;20603;-84
2023/12/14 07:45:23;;;;;;;4.53;4.13;;;11.40;81.30;10.20;95880.00;;;;5051522;28;20247;-84
2023/12/14 07:47:50;;;;;;;5.13;4.17;;;11.50;81.50;10.20;95891.00;;;;5041417;28;20263;-85
2023/12/14 07:50:19;;;;;;;4.93;4.53;;;11.50;81.60;10.20;95888.00;;;;5050793;28;20236;-84
2023/12/14 07:52:47;;;;;;;5.03;4.57;;;11.50;81.50;10.20;95893.00;;;;5047877;28;20207;-84
2023/12/14 07:55:15;;;;;;;4.43;4.07;;;11.50;81.40;10.20;95892.00;;;;5048037;28;20265;-83
2023/12/14 07:57:42;;;;;;;4.57;4.17;;;11.50;81.50;10.20;95899.00;;;;5059086;28;20296;-84
2023/12/14 08:00:11;;;;;;;4.80;4.40;;;11.50;81.50;10.30;95896.00;;;;5067405;28;20259;-84
2023/12/14 08:02:39;;;;;;;4.33;4.03;;;11.50;81.80;10.30;95902.00;;;;5052001;28;20232;-84
2023/12/14 08:05:07;;;;;;;4.33;3.93;;;11.60;81.80;10.30;95905.00;;;;5052813;28;20606;-86
2023/12/14 08:07:34;;;;;;;4.93;3.90;;;11.60;81.80;10.30;95916.00;;;;5051047;28;20678;-86
2023/12/14 08:10:03;;;;;;;4.93;4.53;;;11.60;81.80;10.40;95918.00;;;;5064593;28;20254;-86
2023/12/14 08:12:30;;;;;;;4.60;4.20;;;11.60;81.80;10.40;95920.00;;;;5065711;28;20302;-86
2023/12/14 08:14:57;;;;;;;4.87;4.47;;;11.50;81.80;10.40;95922.00;;;;5047088;28;20296;-85
2023/12/14 08:17:26;;;;;;;4.80;4.40;;;11.60;81.80;10.40;95915.00;;;;5036654;28;20648;-85
2023/12/14 08:19:53;;;;;;;5.40;5.00;;;11.70;81.70;10.40;95916.00;;;;5045233;28;20221;-85
2023/12/14 08:22:21;;;;;;;4.53;4.13;;;11.70;81.60;10.50;95928.00;;;;5043293;28;20217;-85
2023/12/14 08:24:49;;;;;;;4.60;4.20;;;11.70;81.60;10.50;95941.00;;;;5045493;28;20576;-85
2023/12/14 08:27:17;;;;;;;4.70;4.30;;;11.70;81.50;10.50;95945.00;;;;5044408;28;20565;-85
2023/12/14 08:29:45;;;;;;;4.63;4.23;;;11.70;81.30;10.50;95957.00;;;;5031762;28;20229;-85
2023/12/14 08:32:15;;;;;;;4.83;4.43;;;11.80;81.40;10.50;95964.00;;;;5042871;28;20204;-85
2023/12/14 08:34:42;;;;;;;4.73;4.33;;;11.80;81.30;10.50;95967.00;;;;5038913;28;20259;-85
2023/12/14 08:37:09;;;;;;;4.90;4.50;;;11.80;81.30;10.60;95980.00;;;;5041365;28;20279;-85
2023/12/14 08:39:36;;;;;;;4.70;4.30;;;11.80;81.20;10.60;95981.00;;;;5041071;28;20225;-85
2023/12/14 08:42:04;;;;;;;4.80;4.40;;;11.80;81.10;10.60;95983.00;;;;5052489;28;20215;-85
2023/12/14 08:44:34;;;;;;;4.40;4.10;;;11.80;81.10;10.60;95983.00;;;;5053106;28;20251;-85
2023/12/14 08:47:03;;;;;;;3.83;3.53;;;11.80;81.10;10.60;95995.00;;;;5055516;28;20200;-85
2023/12/14 08:49:30;;;;;;;4.33;3.87;;;11.80;81.10;10.60;95995.00;;;;5044325;28;20201;-85
2023/12/14 08:51:58;;;;;;;4.13;3.83;;;11.90;81.40;10.60;96006.00;;;;5050621;28;20201;-85
2023/12/14 08:54:25;;;;;;;4.10;3.80;;;11.90;81.40;10.60;96008.00;;;;5041888;28;20315;-85
2023/12/14 08:56:52;;;;;;;3.97;3.57;;;11.90;81.30;10.70;96008.00;;;;5038902;28;20224;-85
2023/12/14 08:59:20;;;;;;;3.73;3.43;;;11.90;81.50;10.70;96011.00;;;;5043625;28;20212;-85
2023/12/14 09:01:49;;;;;;;3.90;3.60;;;11.90;81.70;10.70;96013.00;;;;5044484;28;20766;-85
2023/12/14 09:04:16;;;;;;;3.87;3.53;;;12.00;81.60;10.70;96008.00;;;;5041359;28;20288;-85
2023/12/14 09:06:44;;;;;;;4.27;3.63;;;12.00;81.60;10.70;96018.00;;;;5049650;28;20236;-85
2023/12/14 09:09:12;;;;;;;3.50;3.20;;;12.00;81.20;10.70;96024.00;;;;5045028;28;20217;-85
2023/12/14 09:11:41;;;;;;;4.53;3.27;;;12.00;81.20;10.80;96023.00;;;;5050657;28;20205;-85
2023/12/14 09:14:08;;;;;;;4.10;3.70;;;12.00;81.20;10.80;96032.00;;;;5050065;28;20338;-85
2023/12/14 09:16:35;;;;;;;4.03;3.63;;;12.10;81.30;10.80;96040.00;;;;5048059;28;20665;-85
2023/12/14 09:19:04;;;;;;;3.70;3.30;;;12.10;81.40;10.90;96040.00;;;;5042168;28;20259;-85
2023/12/14 09:21:31;;;;;;;3.97;3.53;;;12.10;81.50;11.00;96048.00;;;;5052497;28;20205;-85
2023/12/14 09:23:58;;;;;;;3.70;3.40;;;12.20;81.80;11.10;96057.00;;;;5044986;28;20225;-84
2023/12/14 09:26:25;;;;;;;3.97;3.67;;;12.20;82.00;11.20;96060.00;;;;5043595;28;20284;-85
2023/12/14 09:28:52;;;;;;;3.20;2.90;;;12.30;82.30;11.20;96059.00;;;;5049491;28;20711;-85
2023/12/14 09:31:19;;;;;;;3.40;3.20;;;12.40;82.40;11.30;96058.00;;;;5055694;28;20232;-85
2023/12/14 09:33:47;;;;;;;3.60;3.30;;;12.40;82.30;11.40;96069.00;;;;5048156;28;20647;-85
2023/12/14 09:36:15;;;;;;;2.70;2.50;;;12.50;82.20;11.40;96061.00;;;;5054205;28;20304;-85
2023/12/14 09:38:42;;;;;;;3.67;3.37;;;12.60;81.90;11.50;96059.00;;;;5057857;28;20565;-85
2023/12/14 09:41:09;;;;;;;3.10;2.90;;;12.60;81.70;11.50;96062.00;;;;5058073;28;20652;-85
2023/12/14 09:43:37;;;;;;;3.03;2.73;;;12.70;81.40;11.60;96075.00;;;;5056045;28;20239;-85
2023/12/14 09:46:05;;;;;;;2.90;2.70;;;12.70;81.30;11.60;96074.00;;;;5062557;28;20243;-85
2023/12/14 09:48:34;;;;;;;3.07;2.87;;;12.80;81.10;11.60;96078.00;;;;5060530;28;20203;-85
2023/12/14 09:51:01;;;;;;;3.03;2.83;;;12.80;80.80;11.60;96082.00;;;;5048745;28;20634;-85
2023/12/14 09:53:30;;;;;;;2.90;2.70;;;12.80;80.90;11.60;96081.00;;;;5049456;28;20197;-85
2023/12/14 09:55:57;;;;;;;2.77;2.57;;;12.80;81.00;11.70;96083.00;;;;5048315;28;20223;-85
2023/12/14 09:58:24;;;;;;;4.00;2.77;;;12.90;81.20;11.70;96089.00;;;;5054835;28;20289;-85
2023/12/14 10:00:51;;;;;;;2.60;2.40;;;12.90;81.10;11.70;96091.00;;;;5052117;28;20643;-85
2023/12/14 10:03:22;;;;;;;2.70;2.47;;;12.90;80.90;11.70;96093.00;;;;5047616;28;20280;-86
2023/12/14 10:05:53;;;;;;;2.93;2.73;;;12.90;81.00;11.80;96097.00;;;;5049771;28;20716;-85
2023/12/14 10:08:20;;;;;;;2.97;2.50;;;13.00;81.40;11.80;96103.00;;;;5043931;28;20215;-85
2023/12/14 10:10:52;;;;;;;2.07;1.97;;;13.00;81.60;11.90;96103.00;;;;5055027;28;20275;-85
2023/12/14 10:13:20;;;;;;;2.43;2.20;;;13.10;81.40;12.00;96101.00;;;;5047230;28;20220;-85
2023/12/14 10:15:50;;;;;;;2.70;2.50;;;13.10;81.40;12.00;96102.00;;;;5060781;28;20246;-85
2023/12/14 10:18:24;;;;;;;1.80;1.70;;;13.20;81.50;12.10;96095.00;;;;5045654;28;20201;-85
2023/12/14 10:20:52;;;;;;;2.27;1.90;;;13.30;81.30;12.20;96104.00;;;;5052846;28;20196;-85
2023/12/14 10:23:20;;;;;;;1.60;1.50;;;13.30;81.40;12.20;96107.00;;;;5040592;28;20233;-85
2023/12/14 10:25:49;;;;;;;2.70;1.73;;;13.40;81.10;12.20;96103.00;;;;5055353;28;20227;-85
2023/12/14 10:28:17;;;;;;;1.60;1.50;;;13.40;80.60;12.20;96100.00;;;;5058279;28;20285;-85
2023/12/14 10:30:45;;;;;;;2.00;1.60;;;13.40;79.80;12.20;96103.00;;;;5050852;28;20672;-85
2023/12/14 10:33:14;;;;;;;3.17;1.80;;;13.40;79.90;12.10;96119.00;;;;5040035;28;20201;-85
2023/12/14 10:35:41;;;;;;;2.40;1.90;;;13.40;79.00;12.10;96110.00;;;;5050969;28;21016;-85
2023/12/14 10:38:11;;;;;;;1.80;1.67;;;13.30;79.00;12.00;96116.00;;;;5051962;28;20310;-85
2023/12/14 10:40:43;;;;;;;1.67;1.57;;;13.30;78.90;12.00;96116.00;;;;5052222;28;20279;-84
2023/12/14 10:43:16;;;;;;;1.87;1.70;;;13.30;79.10;11.90;96123.00;;;;5051451;28;20208;-84
2023/12/14 10:45:48;;;;;;;1.80;1.70;;;13.20;78.70;11.80;96119.00;;;;5045750;28;20298;-84
2023/12/14 10:48:20;;;;;;;2.37;1.63;;;13.10;78.60;11.80;96116.00;;;;5044977;28;20224;-84
2023/12/14 10:51:00;;;;;;;2.03;1.87;;;13.10;78.80;11.80;96121.00;;;;5042190;28;20258;-84
2023/12/14 10:53:39;;;;;;;2.37;1.50;;;13.10;79.00;11.70;96125.00;;;;5044311;28;20231;-85
2023/12/14 10:56:11;;;;;;;1.60;1.50;;;13.00;79.00;11.70;96129.00;;;;5047948;28;20255;-84
2023/12/14 10:58:53;;;;;;;1.63;1.53;;;13.00;79.20;11.70;96135.00;;;;5044384;28;20200;-85